»·PEaware :: N1489 KSBD-KEMT

N1489 :: KSBD-KEMT

FLIGHT INFORMATION

Flight Status: Arrived
Operator: Privately registered:
United States
More flights under this callsign
Pilot: Jonathan K. (33121)
Aircraft: Diamond DA-40
(DA40)
More flights by this aircraft type
Origin: KSBD San Bernardino Intl
United States
Destination: KEMT El Monte
United States
More flights between these airports :: More routes between these airports
Route:
File this flight plan on PilotEdge
Remarks: cat 7
Altitude:
(Current/Filed)
4,000ft
Speed:
(Current/Filed)
110kts
Departed: 18-Jan-21 09:34 AM
Arrived: 18-Jan-21 10:01 AM
Distance/Time
Traveled:
40nm/0:27
Distance/Time
To Go:
Arrived

Flight Plot

Page will automatically refresh every two minutes.


Map Options




Map Legend


Flown Route
Filed Route
Departure Airport
Arrival Airport
Navaid (VOR, NDB)
Fix

Horizontal Profiles

Position Reports

Time Latitude Longitude Heading Altitude Ground
Speed
18-Jan-21 08:46 34.103958 -117.246072 334 1100ft 0kts
18-Jan-21 08:47 34.103958 -117.246072 334 1100ft 0kts
18-Jan-21 08:48 34.103958 -117.246072 334 1100ft 0kts
18-Jan-21 08:48 34.103958 -117.246072 334 1100ft 0kts
18-Jan-21 08:50 34.103958 -117.246072 334 1100ft 0kts
18-Jan-21 08:51 34.103958 -117.246072 334 1100ft 0kts
18-Jan-21 08:52 34.103958 -117.246072 334 1100ft 0kts
18-Jan-21 08:52 34.103958 -117.246072 334 1100ft 0kts
18-Jan-21 08:53 34.103958 -117.246072 334 1100ft 0kts
18-Jan-21 08:54 34.103958 -117.246072 334 1100ft 0kts
18-Jan-21 08:55 34.103958 -117.246072 334 1100ft 0kts
18-Jan-21 08:56 34.103958 -117.246072 334 1100ft 0kts
18-Jan-21 08:57 34.103958 -117.246072 334 1100ft 0kts
18-Jan-21 08:58 34.103958 -117.246072 334 1100ft 0kts
18-Jan-21 08:59 34.103958 -117.246072 334 1100ft 0kts
18-Jan-21 09:00 34.103958 -117.246072 334 1100ft 0kts
18-Jan-21 09:01 34.103958 -117.246072 334 1100ft 0kts
18-Jan-21 09:02 34.103958 -117.246072 334 1100ft 0kts
18-Jan-21 09:03 34.103958 -117.246072 334 1100ft 0kts
18-Jan-21 09:04 34.103958 -117.246072 334 1100ft 0kts
18-Jan-21 09:05 34.103958 -117.246072 334 1100ft 0kts
18-Jan-21 09:06 34.103958 -117.246072 334 1100ft 0kts
18-Jan-21 09:07 34.103958 -117.246072 334 1100ft 0kts
18-Jan-21 09:08 34.103958 -117.246072 334 1100ft 0kts
18-Jan-21 09:09 34.103958 -117.246072 334 1100ft 0kts
18-Jan-21 09:10 34.103958 -117.246072 334 1100ft 0kts
18-Jan-21 09:11 34.103958 -117.246072 334 1100ft 0kts
18-Jan-21 09:12 34.103958 -117.246072 334 1100ft 0kts
18-Jan-21 09:13 34.103958 -117.246072 334 1100ft 0kts
18-Jan-21 09:14 34.103958 -117.246072 334 1100ft 0kts
18-Jan-21 09:15 34.103958 -117.246072 334 1100ft 0kts
18-Jan-21 09:16 34.103958 -117.246072 334 1100ft 0kts
18-Jan-21 09:23 34.103958 -117.246072 334 1100ft 0kts
18-Jan-21 09:24 34.103958 -117.246072 334 1100ft 0kts
18-Jan-21 09:25 34.104415 -117.246668 303 1102ft 0kts
18-Jan-21 09:26 34.103600 -117.244923 96 1102ft 15kts
18-Jan-21 09:27 34.101954 -117.240195 145 1111ft 14kts
18-Jan-21 09:28 34.096634 -117.237226 211 1122ft 17kts
18-Jan-21 09:29 34.093675 -117.246701 251 1098ft 32kts
18-Jan-21 09:30 34.091718 -117.250960 163 1085ft 0kts
18-Jan-21 09:31 34.091718 -117.250960 163 1085ft 0kts
18-Jan-21 09:32 34.091118 -117.249578 76 1089ft 0kts
18-Jan-21 09:33 34.097052 -117.230974 62 1364ft 86kts
18-Jan-21 09:34 34.098265 -117.205517 155 1939ft 100kts
18-Jan-21 09:35 34.080966 -117.226335 251 1994ft 105kts
18-Jan-21 09:36 34.076962 -117.260763 271 1998ft 104kts
18-Jan-21 09:37 34.078392 -117.293715 295 1996ft 94kts
18-Jan-21 09:38 34.085240 -117.323833 282 2001ft 92kts
18-Jan-21 09:39 34.090083 -117.350523 282 2505ft 69kts
18-Jan-21 09:40 34.093876 -117.375631 274 2854ft 96kts
18-Jan-21 09:41 34.095143 -117.411546 272 3304ft 112kts
18-Jan-21 09:42 34.097601 -117.448417 276 3876ft 109kts
18-Jan-21 09:43 34.098425 -117.483791 272 4486ft 107kts
18-Jan-21 09:44 34.098900 -117.521891 272 4471ft 113kts
18-Jan-21 09:45 34.099227 -117.559554 268 4469ft 112kts
18-Jan-21 09:46 34.099255 -117.597131 272 4470ft 111kts
18-Jan-21 09:47 34.099710 -117.634543 272 4470ft 111kts
18-Jan-21 09:48 34.096379 -117.671802 262 4478ft 111kts
18-Jan-21 09:49 34.092772 -117.708932 265 4491ft 110kts
18-Jan-21 09:50 34.089480 -117.745937 265 4510ft 111kts
18-Jan-21 09:51 34.086150 -117.783302 265 4514ft 112kts
18-Jan-21 09:52 34.086058 -117.821276 275 4511ft 113kts
18-Jan-21 09:53 34.087990 -117.857320 275 4506ft 106kts
18-Jan-21 09:54 34.089941 -117.891898 278 4252ft 113kts
18-Jan-21 09:55 34.094269 -117.926196 288 3300ft 108kts
18-Jan-21 09:56 34.114894 -117.950714 310 2351ft 106kts
18-Jan-21 09:57 34.125846 -117.982672 282 1782ft 107kts
18-Jan-21 09:58 34.121657 -118.014355 220 971ft 101kts
18-Jan-21 09:59 34.098380 -118.027856 204 525ft 95kts
18-Jan-21 10:00 34.084990 -118.034502 140 291ft 0kts
18-Jan-21 10:01 34.085402 -118.033283 57 291ft 0kts

Navigation Log

Ident Type
Flight plan parsing failed, navigation log unavailable